sensor_id;sensor_type;location;lat;lon;timestamp;temperature;humidity
14995;DHT22;7593;49.006;8.372;2022-08-05T00:01:37;27.70;68.70
14995;DHT22;7593;49.006;8.372;2022-08-05T00:04:05;27.70;68.50
14995;DHT22;7593;49.006;8.372;2022-08-05T00:06:32;27.70;68.40
14995;DHT22;7593;49.006;8.372;2022-08-05T00:08:59;27.60;69.20
14995;DHT22;7593;49.006;8.372;2022-08-05T00:11:26;27.60;69.40
14995;DHT22;7593;49.006;8.372;2022-08-05T00:13:53;27.50;69.60
14995;DHT22;7593;49.006;8.372;2022-08-05T00:16:20;27.50;69.60
14995;DHT22;7593;49.006;8.372;2022-08-05T00:18:48;27.50;69.90
14995;DHT22;7593;49.006;8.372;2022-08-05T00:21:17;27.40;70.00
14995;DHT22;7593;49.006;8.372;2022-08-05T00:23:45;27.40;70.10
14995;DHT22;7593;49.006;8.372;2022-08-05T00:26:13;27.30;70.40
14995;DHT22;7593;49.006;8.372;2022-08-05T00:28:40;27.20;70.50
14995;DHT22;7593;49.006;8.372;2022-08-05T00:31:07;27.10;71.60
14995;DHT22;7593;49.006;8.372;2022-08-05T00:33:34;27.10;73.20
14995;DHT22;7593;49.006;8.372;2022-08-05T00:36:01;27.30;73.70
14995;DHT22;7593;49.006;8.372;2022-08-05T00:38:30;27.40;73.50
14995;DHT22;7593;49.006;8.372;2022-08-05T00:40:57;27.60;73.70
14995;DHT22;7593;49.006;8.372;2022-08-05T00:43:24;27.70;73.90
14995;DHT22;7593;49.006;8.372;2022-08-05T00:45:51;27.80;73.80
14995;DHT22;7593;49.006;8.372;2022-08-05T00:48:20;27.90;74.20
14995;DHT22;7593;49.006;8.372;2022-08-05T00:50:49;28.00;74.50
14995;DHT22;7593;49.006;8.372;2022-08-05T00:53:17;28.00;74.70
14995;DHT22;7593;49.006;8.372;2022-08-05T00:55:47;28.00;74.90
14995;DHT22;7593;49.006;8.372;2022-08-05T00:58:14;28.00;75.20
14995;DHT22;7593;49.006;8.372;2022-08-05T01:00:42;28.00;75.20
14995;DHT22;7593;49.006;8.372;2022-08-05T01:03:10;28.00;75.70
14995;DHT22;7593;49.006;8.372;2022-08-05T01:05:37;27.90;75.70
14995;DHT22;7593;49.006;8.372;2022-08-05T01:08:04;27.90;76.10
14995;DHT22;7593;49.006;8.372;2022-08-05T01:10:36;27.80;76.40
14995;DHT22;7593;49.006;8.372;2022-08-05T01:13:21;27.70;76.70
14995;DHT22;7593;49.006;8.372;2022-08-05T01:15:54;27.70;77.00
14995;DHT22;7593;49.006;8.372;2022-08-05T01:18:25;27.60;77.10
14995;DHT22;7593;49.006;8.372;2022-08-05T01:21:02;27.60;77.40
14995;DHT22;7593;49.006;8.372;2022-08-05T01:23:43;27.50;77.60
14995;DHT22;7593;49.006;8.372;2022-08-05T01:26:32;27.50;77.90
14995;DHT22;7593;49.006;8.372;2022-08-05T01:29:05;27.50;78.00
14995;DHT22;7593;49.006;8.372;2022-08-05T01:31:38;27.40;78.10
14995;DHT22;7593;49.006;8.372;2022-08-05T01:34:10;27.50;78.30
14995;DHT22;7593;49.006;8.372;2022-08-05T01:36:41;27.50;78.20
14995;DHT22;7593;49.006;8.372;2022-08-05T01:39:10;27.50;78.20
14995;DHT22;7593;49.006;8.372;2022-08-05T01:41:38;27.50;78.40
14995;DHT22;7593;49.006;8.372;2022-08-05T01:44:08;27.50;78.60
14995;DHT22;7593;49.006;8.372;2022-08-05T01:46:35;27.40;78.80
14995;DHT22;7593;49.006;8.372;2022-08-05T01:49:04;27.40;79.00
14995;DHT22;7593;49.006;8.372;2022-08-05T01:51:34;27.40;79.30
14995;DHT22;7593;49.006;8.372;2022-08-05T01:54:04;27.30;79.60
14995;DHT22;7593;49.006;8.372;2022-08-05T01:56:39;27.30;79.70
14995;DHT22;7593;49.006;8.372;2022-08-05T01:59:13;27.20;80.00
14995;DHT22;7593;49.006;8.372;2022-08-05T02:01:41;27.20;80.40
14995;DHT22;7593;49.006;8.372;2022-08-05T02:04:09;27.10;80.50
14995;DHT22;7593;49.006;8.372;2022-08-05T02:06:37;27.10;80.80
14995;DHT22;7593;49.006;8.372;2022-08-05T02:09:04;27.00;81.20
14995;DHT22;7593;49.006;8.372;2022-08-05T02:11:40;27.00;81.50
14995;DHT22;7593;49.006;8.372;2022-08-05T02:14:11;27.00;81.70
14995;DHT22;7593;49.006;8.372;2022-08-05T02:16:45;27.00;82.10
14995;DHT22;7593;49.006;8.372;2022-08-05T02:19:18;27.00;82.10
14995;DHT22;7593;49.006;8.372;2022-08-05T02:21:51;27.00;82.20
14995;DHT22;7593;49.006;8.372;2022-08-05T02:24:22;27.10;82.30
14995;DHT22;7593;49.006;8.372;2022-08-05T02:26:56;27.00;82.50
14995;DHT22;7593;49.006;8.372;2022-08-05T02:29:27;27.10;82.30
14995;DHT22;7593;49.006;8.372;2022-08-05T02:31:56;27.10;82.60
14995;DHT22;7593;49.006;8.372;2022-08-05T02:34:27;27.10;82.70
14995;DHT22;7593;49.006;8.372;2022-08-05T02:36:56;27.10;82.70
14995;DHT22;7593;49.006;8.372;2022-08-05T02:39:24;27.10;82.80
14995;DHT22;7593;49.006;8.372;2022-08-05T02:41:54;27.10;83.30
14995;DHT22;7593;49.006;8.372;2022-08-05T02:44:23;27.10;83.40
14995;DHT22;7593;49.006;8.372;2022-08-05T02:46:54;27.00;83.70
14995;DHT22;7593;49.006;8.372;2022-08-05T02:49:22;27.00;84.00
14995;DHT22;7593;49.006;8.372;2022-08-05T02:51:50;26.90;84.10
14995;DHT22;7593;49.006;8.372;2022-08-05T02:54:19;26.90;84.30
14995;DHT22;7593;49.006;8.372;2022-08-05T02:56:48;26.90;84.50
14995;DHT22;7593;49.006;8.372;2022-08-05T02:59:16;26.90;84.50
14995;DHT22;7593;49.006;8.372;2022-08-05T03:01:46;26.90;84.70
14995;DHT22;7593;49.006;8.372;2022-08-05T03:04:17;26.90;84.80
14995;DHT22;7593;49.006;8.372;2022-08-05T03:06:44;26.80;84.90
14995;DHT22;7593;49.006;8.372;2022-08-05T03:09:12;26.80;84.90
14995;DHT22;7593;49.006;8.372;2022-08-05T03:11:41;26.80;84.90
14995;DHT22;7593;49.006;8.372;2022-08-05T03:14:09;26.90;85.00
14995;DHT22;7593;49.006;8.372;2022-08-05T03:16:36;26.80;84.90
14995;DHT22;7593;49.006;8.372;2022-08-05T03:19:03;26.80;84.90
14995;DHT22;7593;49.006;8.372;2022-08-05T03:21:32;26.80;84.80
14995;DHT22;7593;49.006;8.372;2022-08-05T03:23:59;26.80;84.70
14995;DHT22;7593;49.006;8.372;2022-08-05T03:26:26;26.80;84.60
14995;DHT22;7593;49.006;8.372;2022-08-05T03:28:53;26.80;84.90
14995;DHT22;7593;49.006;8.372;2022-08-05T03:31:20;26.80;85.00
14995;DHT22;7593;49.006;8.372;2022-08-05T03:33:47;26.70;84.70
14995;DHT22;7593;49.006;8.372;2022-08-05T03:36:14;26.70;84.80
14995;DHT22;7593;49.006;8.372;2022-08-05T03:38:42;26.60;84.90
14995;DHT22;7593;49.006;8.372;2022-08-05T03:41:09;26.60;85.00
14995;DHT22;7593;49.006;8.372;2022-08-05T03:43:36;26.60;85.10
14995;DHT22;7593;49.006;8.372;2022-08-05T03:46:04;26.70;85.40
14995;DHT22;7593;49.006;8.372;2022-08-05T03:48:31;26.70;87.40
14995;DHT22;7593;49.006;8.372;2022-08-05T03:51:04;26.70;90.50
14995;DHT22;7593;49.006;8.372;2022-08-05T03:53:38;26.50;90.30
14995;DHT22;7593;49.006;8.372;2022-08-05T03:56:11;26.30;91.70
14995;DHT22;7593;49.006;8.372;2022-08-05T03:58:43;26.20;92.70
14995;DHT22;7593;49.006;8.372;2022-08-05T04:01:12;26.10;93.50
14995;DHT22;7593;49.006;8.372;2022-08-05T04:03:41;25.90;93.60
14995;DHT22;7593;49.006;8.372;2022-08-05T04:06:09;25.80;93.20
14995;DHT22;7593;49.006;8.372;2022-08-05T04:08:37;25.80;93.40
14995;DHT22;7593;49.006;8.372;2022-08-05T04:11:07;25.80;93.50
14995;DHT22;7593;49.006;8.372;2022-08-05T04:13:34;25.70;93.30
14995;DHT22;7593;49.006;8.372;2022-08-05T04:16:01;25.70;93.10
14995;DHT22;7593;49.006;8.372;2022-08-05T04:18:28;25.70;92.90
14995;DHT22;7593;49.006;8.372;2022-08-05T04:20:57;25.70;92.80
14995;DHT22;7593;49.006;8.372;2022-08-05T04:23:25;25.70;92.90
14995;DHT22;7593;49.006;8.372;2022-08-05T04:25:53;25.80;92.60
14995;DHT22;7593;49.006;8.372;2022-08-05T04:28:21;25.80;92.50
14995;DHT22;7593;49.006;8.372;2022-08-05T04:30:48;25.80;92.40
14995;DHT22;7593;49.006;8.372;2022-08-05T04:33:15;25.80;92.20
14995;DHT22;7593;49.006;8.372;2022-08-05T04:35:42;25.80;92.20
14995;DHT22;7593;49.006;8.372;2022-08-05T04:38:09;25.80;92.20
14995;DHT22;7593;49.006;8.372;2022-08-05T04:40:37;25.80;92.30
14995;DHT22;7593;49.006;8.372;2022-08-05T04:43:04;25.70;92.30
14995;DHT22;7593;49.006;8.372;2022-08-05T04:45:33;25.70;92.20
14995;DHT22;7593;49.006;8.372;2022-08-05T04:48:04;25.70;91.80
14995;DHT22;7593;49.006;8.372;2022-08-05T04:50:37;25.70;91.50
14995;DHT22;7593;49.006;8.372;2022-08-05T04:53:05;25.70;91.10
14995;DHT22;7593;49.006;8.372;2022-08-05T04:55:32;25.60;90.90
14995;DHT22;7593;49.006;8.372;2022-08-05T04:57:58;25.50;90.60
14995;DHT22;7593;49.006;8.372;2022-08-05T05:00:25;25.50;90.30
14995;DHT22;7593;49.006;8.372;2022-08-05T05:02:53;25.50;90.30
14995;DHT22;7593;49.006;8.372;2022-08-05T05:05:20;25.50;90.20
14995;DHT22;7593;49.006;8.372;2022-08-05T05:07:47;25.50;89.80
14995;DHT22;7593;49.006;8.372;2022-08-05T05:10:14;25.50;89.80
14995;DHT22;7593;49.006;8.372;2022-08-05T05:12:40;25.50;89.90
14995;DHT22;7593;49.006;8.372;2022-08-05T05:15:08;25.60;89.90
14995;DHT22;7593;49.006;8.372;2022-08-05T05:17:38;25.70;89.50
14995;DHT22;7593;49.006;8.372;2022-08-05T05:20:08;25.70;89.00
14995;DHT22;7593;49.006;8.372;2022-08-05T05:22:35;25.70;88.40
14995;DHT22;7593;49.006;8.372;2022-08-05T05:25:03;25.80;88.10
14995;DHT22;7593;49.006;8.372;2022-08-05T05:27:31;25.90;87.30
14995;DHT22;7593;49.006;8.372;2022-08-05T05:29:58;25.90;87.50
14995;DHT22;7593;49.006;8.372;2022-08-05T05:32:25;26.00;88.00
14995;DHT22;7593;49.006;8.372;2022-08-05T05:34:51;26.00;88.40
14995;DHT22;7593;49.006;8.372;2022-08-05T05:37:20;25.90;88.90
14995;DHT22;7593;49.006;8.372;2022-08-05T05:39:47;25.80;89.10
14995;DHT22;7593;49.006;8.372;2022-08-05T05:42:15;25.70;89.30
14995;DHT22;7593;49.006;8.372;2022-08-05T05:44:42;25.70;89.50
14995;DHT22;7593;49.006;8.372;2022-08-05T05:47:09;25.70;89.50
14995;DHT22;7593;49.006;8.372;2022-08-05T05:49:36;25.70;89.30
14995;DHT22;7593;49.006;8.372;2022-08-05T05:52:03;25.70;89.50
14995;DHT22;7593;49.006;8.372;2022-08-05T05:54:31;25.70;89.80
14995;DHT22;7593;49.006;8.372;2022-08-05T05:56:58;25.70;89.70
14995;DHT22;7593;49.006;8.372;2022-08-05T05:59:25;25.70;89.60
14995;DHT22;7593;49.006;8.372;2022-08-05T06:01:52;25.70;89.50
14995;DHT22;7593;49.006;8.372;2022-08-05T06:04:18;25.70;88.90
14995;DHT22;7593;49.006;8.372;2022-08-05T06:06:45;25.70;88.70
14995;DHT22;7593;49.006;8.372;2022-08-05T06:09:12;25.70;88.50
14995;DHT22;7593;49.006;8.372;2022-08-05T06:11:40;25.60;88.30
14995;DHT22;7593;49.006;8.372;2022-08-05T06:14:07;25.60;88.20
14995;DHT22;7593;49.006;8.372;2022-08-05T06:16:33;25.50;88.10
14995;DHT22;7593;49.006;8.372;2022-08-05T06:19:00;25.60;88.00
14995;DHT22;7593;49.006;8.372;2022-08-05T06:21:27;25.60;88.20
14995;DHT22;7593;49.006;8.372;2022-08-05T06:23:56;25.80;88.80
14995;DHT22;7593;49.006;8.372;2022-08-05T06:26:23;26.40;87.50
14995;DHT22;7593;49.006;8.372;2022-08-05T06:28:51;27.10;85.50
14995;DHT22;7593;49.006;8.372;2022-08-05T06:31:18;27.30;83.50
14995;DHT22;7593;49.006;8.372;2022-08-05T06:33:45;27.80;82.60
14995;DHT22;7593;49.006;8.372;2022-08-05T06:36:12;27.90;81.00
14995;DHT22;7593;49.006;8.372;2022-08-05T06:38:39;27.90;80.50
14995;DHT22;7593;49.006;8.372;2022-08-05T06:41:06;27.80;80.20
14995;DHT22;7593;49.006;8.372;2022-08-05T06:43:32;28.20;80.00
14995;DHT22;7593;49.006;8.372;2022-08-05T06:46:01;28.80;78.80
14995;DHT22;7593;49.006;8.372;2022-08-05T06:48:30;29.10;76.60
14995;DHT22;7593;49.006;8.372;2022-08-05T06:50:59;29.20;75.70
14995;DHT22;7593;49.006;8.372;2022-08-05T06:53:26;29.30;76.30
14995;DHT22;7593;49.006;8.372;2022-08-05T06:55:53;29.50;76.50
14995;DHT22;7593;49.006;8.372;2022-08-05T06:58:19;29.90;75.50
14995;DHT22;7593;49.006;8.372;2022-08-05T07:00:46;30.50;74.80
14995;DHT22;7593;49.006;8.372;2022-08-05T07:03:14;31.00;73.60
14995;DHT22;7593;49.006;8.372;2022-08-05T07:05:41;31.50;71.20
14995;DHT22;7593;49.006;8.372;2022-08-05T07:08:08;31.80;70.50
14995;DHT22;7593;49.006;8.372;2022-08-05T07:10:35;31.60;68.90
14995;DHT22;7593;49.006;8.372;2022-08-05T07:13:01;31.20;69.90
14995;DHT22;7593;49.006;8.372;2022-08-05T07:15:46;30.80;69.70
14995;DHT22;7593;49.006;8.372;2022-08-05T07:18:31;30.40;71.00
14995;DHT22;7593;49.006;8.372;2022-08-05T07:20:58;30.70;71.50
14995;DHT22;7593;49.006;8.372;2022-08-05T07:23:25;31.10;69.50
14995;DHT22;7593;49.006;8.372;2022-08-05T07:25:52;31.40;69.50
14995;DHT22;7593;49.006;8.372;2022-08-05T07:28:19;31.60;69.50
14995;DHT22;7593;49.006;8.372;2022-08-05T07:30:46;31.70;69.50
14995;DHT22;7593;49.006;8.372;2022-08-05T07:33:13;31.80;69.10
14995;DHT22;7593;49.006;8.372;2022-08-05T07:35:41;31.90;68.20
14995;DHT22;7593;49.006;8.372;2022-08-05T07:38:09;32.00;68.10
14995;DHT22;7593;49.006;8.372;2022-08-05T07:40:35;32.30;68.00
14995;DHT22;7593;49.006;8.372;2022-08-05T07:43:02;32.50;67.70
14995;DHT22;7593;49.006;8.372;2022-08-05T07:45:32;32.80;67.50
14995;DHT22;7593;49.006;8.372;2022-08-05T07:47:59;33.20;66.40
14995;DHT22;7593;49.006;8.372;2022-08-05T07:50:25;33.60;65.80
14995;DHT22;7593;49.006;8.372;2022-08-05T07:52:54;33.70;64.70
14995;DHT22;7593;49.006;8.372;2022-08-05T07:55:21;33.80;64.30
14995;DHT22;7593;49.006;8.372;2022-08-05T07:57:47;34.10;63.10
14995;DHT22;7593;49.006;8.372;2022-08-05T08:00:16;34.10;62.90
14995;DHT22;7593;49.006;8.372;2022-08-05T08:02:42;34.10;62.90
14995;DHT22;7593;49.006;8.372;2022-08-05T08:05:10;33.40;63.00
14995;DHT22;7593;49.006;8.372;2022-08-05T08:07:36;32.70;64.30
14995;DHT22;7593;49.006;8.372;2022-08-05T08:10:05;31.90;65.80
14995;DHT22;7593;49.006;8.372;2022-08-05T08:12:32;31.70;67.30
14995;DHT22;7593;49.006;8.372;2022-08-05T08:14:59;32.00;67.30
14995;DHT22;7593;49.006;8.372;2022-08-05T08:17:26;32.70;65.80
14995;DHT22;7593;49.006;8.372;2022-08-05T08:19:53;33.40;64.10
14995;DHT22;7593;49.006;8.372;2022-08-05T08:22:24;33.70;62.80
14995;DHT22;7593;49.006;8.372;2022-08-05T08:24:52;33.50;63.10
14995;DHT22;7593;49.006;8.372;2022-08-05T08:27:22;33.40;63.30
14995;DHT22;7593;49.006;8.372;2022-08-05T08:29:49;33.30;63.40
14995;DHT22;7593;49.006;8.372;2022-08-05T08:32:16;33.20;62.90
14995;DHT22;7593;49.006;8.372;2022-08-05T08:34:43;33.40;62.50
14995;DHT22;7593;49.006;8.372;2022-08-05T08:37:10;33.50;62.80
14995;DHT22;7593;49.006;8.372;2022-08-05T08:39:37;33.80;61.90
14995;DHT22;7593;49.006;8.372;2022-08-05T08:42:05;34.40;60.70
14995;DHT22;7593;49.006;8.372;2022-08-05T08:44:35;34.90;60.00
14995;DHT22;7593;49.006;8.372;2022-08-05T08:47:03;35.40;59.00
14995;DHT22;7593;49.006;8.372;2022-08-05T08:49:33;35.50;58.00
14995;DHT22;7593;49.006;8.372;2022-08-05T08:52:07;35.20;58.30
14995;DHT22;7593;49.006;8.372;2022-08-05T08:54:36;35.00;58.80
14995;DHT22;7593;49.006;8.372;2022-08-05T08:57:04;34.70;59.00
14995;DHT22;7593;49.006;8.372;2022-08-05T08:59:32;34.50;59.40
14995;DHT22;7593;49.006;8.372;2022-08-05T09:02:00;34.90;59.10
14995;DHT22;7593;49.006;8.372;2022-08-05T09:04:32;35.10;58.60
14995;DHT22;7593;49.006;8.372;2022-08-05T09:07:00;35.20;58.10
14995;DHT22;7593;49.006;8.372;2022-08-05T09:09:28;34.90;58.50
14995;DHT22;7593;49.006;8.372;2022-08-05T09:11:55;35.00;58.40
14995;DHT22;7593;49.006;8.372;2022-08-05T09:14:22;35.20;58.10
14995;DHT22;7593;49.006;8.372;2022-08-05T09:16:50;35.60;57.50
14995;DHT22;7593;49.006;8.372;2022-08-05T09:19:18;36.00;56.70
14995;DHT22;7593;49.006;8.372;2022-08-05T09:21:45;36.30;56.60
14995;DHT22;7593;49.006;8.372;2022-08-05T09:24:13;36.50;56.30
14995;DHT22;7593;49.006;8.372;2022-08-05T09:26:40;36.80;55.70
14995;DHT22;7593;49.006;8.372;2022-08-05T09:29:07;37.10;55.50
14995;DHT22;7593;49.006;8.372;2022-08-05T09:31:34;37.50;54.90
14995;DHT22;7593;49.006;8.372;2022-08-05T09:34:03;37.60;53.90
14995;DHT22;7593;49.006;8.372;2022-08-05T09:36:41;37.50;54.00
14995;DHT22;7593;49.006;8.372;2022-08-05T09:39:09;37.50;53.60
14995;DHT22;7593;49.006;8.372;2022-08-05T09:41:53;37.60;53.60
14995;DHT22;7593;49.006;8.372;2022-08-05T09:44:32;37.60;53.90
14995;DHT22;7593;49.006;8.372;2022-08-05T09:47:08;37.60;53.90
14995;DHT22;7593;49.006;8.372;2022-08-05T09:49:39;37.60;54.00
14995;DHT22;7593;49.006;8.372;2022-08-05T09:52:19;37.50;53.40
14995;DHT22;7593;49.006;8.372;2022-08-05T09:54:54;37.30;53.70
14995;DHT22;7593;49.006;8.372;2022-08-05T09:57:28;36.90;54.20
14995;DHT22;7593;49.006;8.372;2022-08-05T09:59:57;36.40;54.90
14995;DHT22;7593;49.006;8.372;2022-08-05T10:02:35;36.20;55.90
14995;DHT22;7593;49.006;8.372;2022-08-05T10:05:04;36.30;55.70
14995;DHT22;7593;49.006;8.372;2022-08-05T10:07:51;36.50;55.50
14995;DHT22;7593;49.006;8.372;2022-08-05T10:10:20;36.50;55.80
14995;DHT22;7593;49.006;8.372;2022-08-05T10:12:49;36.60;55.60
14995;DHT22;7593;49.006;8.372;2022-08-05T10:15:19;36.70;55.00
14995;DHT22;7593;49.006;8.372;2022-08-05T10:18:11;36.70;55.10
14995;DHT22;7593;49.006;8.372;2022-08-05T10:20:41;36.90;55.40
14995;DHT22;7593;49.006;8.372;2022-08-05T10:23:12;37.00;55.30
14995;DHT22;7593;49.006;8.372;2022-08-05T10:25:39;37.40;55.30
14995;DHT22;7593;49.006;8.372;2022-08-05T10:28:06;37.90;54.60
14995;DHT22;7593;49.006;8.372;2022-08-05T10:30:34;38.10;54.50
14995;DHT22;7593;49.006;8.372;2022-08-05T10:33:02;38.40;54.30
14995;DHT22;7593;49.006;8.372;2022-08-05T10:35:30;38.60;53.80
14995;DHT22;7593;49.006;8.372;2022-08-05T10:37:57;38.50;53.60
14995;DHT22;7593;49.006;8.372;2022-08-05T10:40:33;38.50;53.30
14995;DHT22;7593;49.006;8.372;2022-08-05T10:43:11;38.60;53.20
14995;DHT22;7593;49.006;8.372;2022-08-05T10:45:38;38.70;53.70
14995;DHT22;7593;49.006;8.372;2022-08-05T10:48:27;38.80;52.50
14995;DHT22;7593;49.006;8.372;2022-08-05T10:51:03;38.80;52.20
14995;DHT22;7593;49.006;8.372;2022-08-05T10:53:38;38.60;53.00
14995;DHT22;7593;49.006;8.372;2022-08-05T10:56:09;38.50;52.70
14995;DHT22;7593;49.006;8.372;2022-08-05T10:58:47;38.70;53.00
14995;DHT22;7593;49.006;8.372;2022-08-05T11:01:15;38.60;52.90
14995;DHT22;7593;49.006;8.372;2022-08-05T11:04:06;38.30;53.60
14995;DHT22;7593;49.006;8.372;2022-08-05T11:06:35;38.20;53.70
14995;DHT22;7593;49.006;8.372;2022-08-05T11:09:22;38.40;53.50
14995;DHT22;7593;49.006;8.372;2022-08-05T11:11:52;38.50;53.60
14995;DHT22;7593;49.006;8.372;2022-08-05T11:14:25;38.80;53.10
14995;DHT22;7593;49.006;8.372;2022-08-05T11:17:30;38.90;52.90
14995;DHT22;7593;49.006;8.372;2022-08-05T11:19:59;39.00;52.70
14995;DHT22;7593;49.006;8.372;2022-08-05T11:22:41;39.20;52.50
14995;DHT22;7593;49.006;8.372;2022-08-05T11:25:28;39.10;52.00
14995;DHT22;7593;49.006;8.372;2022-08-05T11:28:33;38.80;53.00
14995;DHT22;7593;49.006;8.372;2022-08-05T11:31:18;38.90;52.90
14995;DHT22;7593;49.006;8.372;2022-08-05T11:33:53;38.80;53.00
14995;DHT22;7593;49.006;8.372;2022-08-05T11:36:37;39.00;53.10
14995;DHT22;7593;49.006;8.372;2022-08-05T11:39:04;39.20;52.80
14995;DHT22;7593;49.006;8.372;2022-08-05T11:41:33;39.20;53.00
14995;DHT22;7593;49.006;8.372;2022-08-05T11:44:03;39.40;53.20
14995;DHT22;7593;49.006;8.372;2022-08-05T11:46:31;39.70;53.00
14995;DHT22;7593;49.006;8.372;2022-08-05T11:49:00;39.70;52.90
14995;DHT22;7593;49.006;8.372;2022-08-05T11:51:28;39.70;52.80
14995;DHT22;7593;49.006;8.372;2022-08-05T11:53:56;39.60;52.90
14995;DHT22;7593;49.006;8.372;2022-08-05T11:56:23;39.60;53.00
14995;DHT22;7593;49.006;8.372;2022-08-05T11:58:50;39.50;53.00
14995;DHT22;7593;49.006;8.372;2022-08-05T12:01:20;39.30;53.00
14995;DHT22;7593;49.006;8.372;2022-08-05T12:03:49;39.10;53.30
14995;DHT22;7593;49.006;8.372;2022-08-05T12:06:19;39.00;53.30
14995;DHT22;7593;49.006;8.372;2022-08-05T12:08:47;39.10;53.20
14995;DHT22;7593;49.006;8.372;2022-08-05T12:11:17;39.50;52.90
14995;DHT22;7593;49.006;8.372;2022-08-05T12:13:52;39.70;52.70
14995;DHT22;7593;49.006;8.372;2022-08-05T12:16:22;39.80;52.20
14995;DHT22;7593;49.006;8.372;2022-08-05T12:18:50;39.70;52.40
14995;DHT22;7593;49.006;8.372;2022-08-05T12:21:18;39.70;52.00
14995;DHT22;7593;49.006;8.372;2022-08-05T12:24:02;39.70;51.80
14995;DHT22;7593;49.006;8.372;2022-08-05T12:26:33;39.70;51.90
14995;DHT22;7593;49.006;8.372;2022-08-05T12:29:00;39.70;52.30
14995;DHT22;7593;49.006;8.372;2022-08-05T12:31:30;39.60;52.50
14995;DHT22;7593;49.006;8.372;2022-08-05T12:33:57;39.60;52.60
14995;DHT22;7593;49.006;8.372;2022-08-05T12:36:24;39.60;52.70
14995;DHT22;7593;49.006;8.372;2022-08-05T12:38:51;39.50;53.00
14995;DHT22;7593;49.006;8.372;2022-08-05T12:41:18;39.60;52.60
14995;DHT22;7593;49.006;8.372;2022-08-05T12:43:49;39.30;53.10
14995;DHT22;7593;49.006;8.372;2022-08-05T12:46:20;39.30;53.10
14995;DHT22;7593;49.006;8.372;2022-08-05T12:48:55;39.20;53.10
14995;DHT22;7593;49.006;8.372;2022-08-05T12:51:22;39.20;53.20
14995;DHT22;7593;49.006;8.372;2022-08-05T12:53:58;38.80;53.60
14995;DHT22;7593;49.006;8.372;2022-08-05T12:56:25;38.50;54.20
14995;DHT22;7593;49.006;8.372;2022-08-05T12:59:11;38.20;54.30
14995;DHT22;7593;49.006;8.372;2022-08-05T13:01:41;37.80;55.20
14995;DHT22;7593;49.006;8.372;2022-08-05T13:04:11;37.50;54.90
14995;DHT22;7593;49.006;8.372;2022-08-05T13:06:41;37.30;55.60
14995;DHT22;7593;49.006;8.372;2022-08-05T13:09:10;37.00;56.20
14995;DHT22;7593;49.006;8.372;2022-08-05T13:11:42;36.80;56.40
14995;DHT22;7593;49.006;8.372;2022-08-05T13:14:10;36.60;57.00
14995;DHT22;7593;49.006;8.372;2022-08-05T13:16:47;36.40;57.90
14995;DHT22;7593;49.006;8.372;2022-08-05T13:19:16;36.10;58.80
14995;DHT22;7593;49.006;8.372;2022-08-05T13:21:45;35.80;59.70
14995;DHT22;7593;49.006;8.372;2022-08-05T13:24:12;35.60;60.40
14995;DHT22;7593;49.006;8.372;2022-08-05T13:26:40;35.40;61.20
14995;DHT22;7593;49.006;8.372;2022-08-05T13:29:06;35.40;61.20
14995;DHT22;7593;49.006;8.372;2022-08-05T13:31:33;35.70;60.90
14995;DHT22;7593;49.006;8.372;2022-08-05T13:34:00;36.00;60.30
14995;DHT22;7593;49.006;8.372;2022-08-05T13:36:28;36.10;60.20
14995;DHT22;7593;49.006;8.372;2022-08-05T13:38:55;36.10;60.40
14995;DHT22;7593;49.006;8.372;2022-08-05T13:41:22;35.90;60.40
14995;DHT22;7593;49.006;8.372;2022-08-05T13:43:49;35.60;61.00
14995;DHT22;7593;49.006;8.372;2022-08-05T13:46:16;35.40;61.20
14995;DHT22;7593;49.006;8.372;2022-08-05T13:48:43;35.30;62.00
14995;DHT22;7593;49.006;8.372;2022-08-05T13:51:11;35.10;61.80
14995;DHT22;7593;49.006;8.372;2022-08-05T13:53:41;35.10;62.50
14995;DHT22;7593;49.006;8.372;2022-08-05T13:56:08;35.30;62.50
14995;DHT22;7593;49.006;8.372;2022-08-05T13:58:35;35.20;62.80
14995;DHT22;7593;49.006;8.372;2022-08-05T14:01:02;35.10;62.80
14995;DHT22;7593;49.006;8.372;2022-08-05T14:03:29;35.10;62.90
14995;DHT22;7593;49.006;8.372;2022-08-05T14:05:56;34.90;63.60
14995;DHT22;7593;49.006;8.372;2022-08-05T14:08:22;34.80;63.20
14995;DHT22;7593;49.006;8.372;2022-08-05T14:10:53;34.60;63.30
14995;DHT22;7593;49.006;8.372;2022-08-05T14:13:20;34.60;63.30
14995;DHT22;7593;49.006;8.372;2022-08-05T14:15:46;34.50;63.60
14995;DHT22;7593;49.006;8.372;2022-08-05T14:18:13;34.30;63.90
14995;DHT22;7593;49.006;8.372;2022-08-05T14:20:40;34.30;63.50
14995;DHT22;7593;49.006;8.372;2022-08-05T14:23:07;34.20;63.60
14995;DHT22;7593;49.006;8.372;2022-08-05T14:25:34;34.00;63.90
14995;DHT22;7593;49.006;8.372;2022-08-05T14:28:03;33.90;64.50
14995;DHT22;7593;49.006;8.372;2022-08-05T14:30:30;33.70;65.20
14995;DHT22;7593;49.006;8.372;2022-08-05T14:33:00;33.70;65.60
14995;DHT22;7593;49.006;8.372;2022-08-05T14:35:31;33.90;65.80
14995;DHT22;7593;49.006;8.372;2022-08-05T14:38:00;34.10;65.50
14995;DHT22;7593;49.006;8.372;2022-08-05T14:40:27;34.10;64.20
14995;DHT22;7593;49.006;8.372;2022-08-05T14:42:53;34.00;64.30
14995;DHT22;7593;49.006;8.372;2022-08-05T14:45:22;33.80;64.50
14995;DHT22;7593;49.006;8.372;2022-08-05T14:47:51;33.70;64.20
14995;DHT22;7593;49.006;8.372;2022-08-05T14:50:18;33.70;64.30
14995;DHT22;7593;49.006;8.372;2022-08-05T14:52:45;33.70;64.70
14995;DHT22;7593;49.006;8.372;2022-08-05T14:55:12;33.80;65.30
14995;DHT22;7593;49.006;8.372;2022-08-05T14:57:39;33.80;65.60
14995;DHT22;7593;49.006;8.372;2022-08-05T15:00:07;33.80;65.30
14995;DHT22;7593;49.006;8.372;2022-08-05T15:02:36;33.90;64.80
14995;DHT22;7593;49.006;8.372;2022-08-05T15:05:03;33.80;65.00
14995;DHT22;7593;49.006;8.372;2022-08-05T15:07:30;33.70;65.40
14995;DHT22;7593;49.006;8.372;2022-08-05T15:09:58;33.50;65.50
14995;DHT22;7593;49.006;8.372;2022-08-05T15:12:25;33.40;65.90
14995;DHT22;7593;49.006;8.372;2022-08-05T15:14:52;33.30;65.30
14995;DHT22;7593;49.006;8.372;2022-08-05T15:17:19;33.10;65.50
14995;DHT22;7593;49.006;8.372;2022-08-05T15:19:47;32.90;66.30
14995;DHT22;7593;49.006;8.372;2022-08-05T15:22:14;32.50;67.10
14995;DHT22;7593;49.006;8.372;2022-08-05T15:24:41;32.40;67.30
14995;DHT22;7593;49.006;8.372;2022-08-05T15:27:09;32.30;67.60
14995;DHT22;7593;49.006;8.372;2022-08-05T15:29:36;32.10;67.80
14995;DHT22;7593;49.006;8.372;2022-08-05T15:32:03;32.00;68.10
14995;DHT22;7593;49.006;8.372;2022-08-05T15:34:30;31.90;68.70
14995;DHT22;7593;49.006;8.372;2022-08-05T15:36:58;31.80;68.70
14995;DHT22;7593;49.006;8.372;2022-08-05T15:39:25;31.80;68.80
14995;DHT22;7593;49.006;8.372;2022-08-05T15:41:52;31.80;68.50
14995;DHT22;7593;49.006;8.372;2022-08-05T15:44:18;31.70;68.50
14995;DHT22;7593;49.006;8.372;2022-08-05T15:46:45;31.60;68.80
14995;DHT22;7593;49.006;8.372;2022-08-05T15:49:12;31.40;69.50
14995;DHT22;7593;49.006;8.372;2022-08-05T15:51:40;31.10;70.00
14995;DHT22;7593;49.006;8.372;2022-08-05T15:54:08;31.10;70.40
14995;DHT22;7593;49.006;8.372;2022-08-05T15:56:35;31.10;70.70
14995;DHT22;7593;49.006;8.372;2022-08-05T15:59:02;31.00;71.00